Time;durP1;ratioP1;P1;durP2;ratioP2;P2;SDS_P1;SDS_P2;PMS_P1;PMS_P2;Temp;Humidity;BMP_temperature;BMP_pressure;BME280_temperature;BME280_humidity;BME280_pressure;Samples;Min_cycle;Max_cycle;Signal;HPM_P1;HPM_P2
2023/05/04 00:01:50;;;;;;;12.13;4.72;;;6.30;99.90;;;;;;4994570;28;20419;-64
2023/05/04 00:04:17;;;;;;;10.57;4.88;;;6.30;99.90;;;;;;4994539;28;20082;-64
2023/05/04 00:06:46;;;;;;;10.07;4.55;;;6.30;99.90;;;;;;4995330;28;20050;-64
2023/05/04 00:09:14;;;;;;;9.40;4.57;;;6.20;99.90;;;;;;4977108;28;20129;-64
2023/05/04 00:11:41;;;;;;;10.20;4.18;;;6.20;99.90;;;;;;4976444;28;20051;-64
2023/05/04 00:14:08;;;;;;;11.43;5.03;;;6.30;99.90;;;;;;4959617;28;20479;-64
2023/05/04 00:16:35;;;;;;;6.13;4.30;;;6.20;99.90;;;;;;4959543;28;20392;-63
2023/05/04 00:19:02;;;;;;;7.93;4.88;;;6.20;99.90;;;;;;4959020;28;20553;-63
2023/05/04 00:21:29;;;;;;;7.20;4.38;;;6.20;99.90;;;;;;4976932;28;20046;-64
2023/05/04 00:23:57;;;;;;;9.23;4.53;;;6.10;99.90;;;;;;4958846;28;20055;-64
2023/05/04 00:26:24;;;;;;;8.70;4.57;;;6.10;99.90;;;;;;4975999;28;20050;-64
2023/05/04 00:28:51;;;;;;;8.07;4.53;;;6.10;99.90;;;;;;4959372;28;20055;-63
2023/05/04 00:31:18;;;;;;;10.05;4.47;;;6.10;99.90;;;;;;4975897;28;20514;-64
2023/05/04 00:33:45;;;;;;;8.13;4.93;;;6.10;99.90;;;;;;4959458;28;20057;-63
2023/05/04 00:36:13;;;;;;;8.68;5.05;;;6.00;99.90;;;;;;4976214;28;20051;-63
2023/05/04 00:38:48;;;;;;;12.18;4.85;;;6.00;99.90;;;;;;4958723;28;20065;-64
2023/05/04 00:41:17;;;;;;;12.13;5.00;;;6.00;99.90;;;;;;4958403;28;20078;-64
2023/05/04 00:43:44;;;;;;;11.23;5.13;;;5.90;99.90;;;;;;4976373;28;20054;-63
2023/05/04 00:46:12;;;;;;;10.15;4.95;;;5.90;99.90;;;;;;4975766;28;20310;-63
2023/05/04 00:48:40;;;;;;;8.20;4.47;;;5.90;99.90;;;;;;4993660;28;20046;-64
2023/05/04 00:51:08;;;;;;;8.13;4.90;;;5.90;99.90;;;;;;4994811;28;20112;-64
2023/05/04 00:53:36;;;;;;;10.77;4.88;;;5.90;99.90;;;;;;4976597;28;20061;-64
2023/05/04 00:56:04;;;;;;;8.90;4.50;;;5.90;99.90;;;;;;4977038;28;20383;-64
2023/05/04 00:58:33;;;;;;;7.65;4.35;;;5.80;99.90;;;;;;4966155;28;20149;-64
2023/05/04 01:01:01;;;;;;;11.13;4.93;;;5.80;99.90;;;;;;4993606;28;20105;-64
2023/05/04 01:03:28;;;;;;;7.43;4.97;;;5.90;99.90;;;;;;4994315;28;20080;-64
2023/05/04 01:06:04;;;;;;;14.35;5.00;;;5.70;99.90;;;;;;4993904;28;20042;-63
2023/05/04 01:08:32;;;;;;;8.15;4.35;;;5.80;99.90;;;;;;4993760;28;20541;-64
2023/05/04 01:11:07;;;;;;;9.45;5.28;;;5.80;99.90;;;;;;4994126;28;20053;-63
2023/05/04 01:13:36;;;;;;;11.23;5.53;;;5.80;99.90;;;;;;4976521;28;20068;-64
2023/05/04 01:16:03;;;;;;;9.50;5.43;;;5.80;99.90;;;;;;4994126;28;20458;-64
2023/05/04 01:18:30;;;;;;;13.73;6.40;;;5.70;99.90;;;;;;4976642;28;20100;-64
2023/05/04 01:20:57;;;;;;;12.27;5.50;;;5.70;99.90;;;;;;4993615;28;20078;-64
2023/05/04 01:23:26;;;;;;;7.93;5.20;;;5.70;99.90;;;;;;4993714;28;20058;-64
2023/05/04 01:25:59;;;;;;;10.02;5.82;;;5.80;99.90;;;;;;4976315;28;20533;-63
2023/05/04 01:28:33;;;;;;;12.00;5.63;;;5.80;99.90;;;;;;4993572;28;20132;-64
2023/05/04 01:31:01;;;;;;;9.55;5.63;;;5.70;99.90;;;;;;4976394;28;20096;-64
2023/05/04 01:33:31;;;;;;;11.15;5.53;;;5.70;99.90;;;;;;4976388;28;20077;-64
2023/05/04 01:35:58;;;;;;;7.40;5.03;;;5.70;99.90;;;;;;4993252;28;20050;-63
2023/05/04 01:38:26;;;;;;;10.77;6.25;;;5.70;99.90;;;;;;4975265;28;20101;-63
2023/05/04 01:40:53;;;;;;;7.28;5.35;;;5.60;99.90;;;;;;4975109;28;20062;-64
2023/05/04 01:43:20;;;;;;;10.32;5.63;;;5.70;99.90;;;;;;4957332;28;20051;-64
2023/05/04 01:45:47;;;;;;;11.80;6.03;;;5.60;99.90;;;;;;4975068;28;20093;-64
2023/05/04 01:48:14;;;;;;;12.63;5.18;;;5.70;99.90;;;;;;4974518;28;20055;-63
2023/05/04 01:50:41;;;;;;;11.32;5.13;;;5.60;99.90;;;;;;4975144;28;20069;-64
2023/05/04 01:53:08;;;;;;;13.95;5.82;;;5.70;99.90;;;;;;4992736;28;20053;-63
2023/05/04 01:55:36;;;;;;;11.00;4.95;;;5.70;99.90;;;;;;4975658;28;20109;-63
2023/05/04 01:58:03;;;;;;;9.52;5.13;;;5.70;99.90;;;;;;4975455;28;20442;-64
2023/05/04 02:00:30;;;;;;;9.52;5.07;;;5.70;99.90;;;;;;4975414;28;20554;-64
2023/05/04 02:02:57;;;;;;;9.70;4.95;;;5.70;99.90;;;;;;4975438;28;20046;-65
2023/05/04 02:05:24;;;;;;;13.48;5.45;;;5.70;99.90;;;;;;4968910;28;20517;-64
2023/05/04 02:07:51;;;;;;;13.32;6.00;;;5.70;99.90;;;;;;4975508;28;20050;-64
2023/05/04 02:10:18;;;;;;;11.20;5.70;;;5.60;99.90;;;;;;4974266;28;20046;-64
2023/05/04 02:12:46;;;;;;;9.13;5.38;;;5.60;99.90;;;;;;4974545;28;20499;-65
2023/05/04 02:15:13;;;;;;;9.80;5.47;;;5.60;99.90;;;;;;4974663;28;20055;-64
2023/05/04 02:17:40;;;;;;;16.33;5.63;;;5.60;99.90;;;;;;4956630;28;20098;-64
2023/05/04 02:20:08;;;;;;;11.50;4.88;;;5.70;99.90;;;;;;4974455;28;20039;-64
2023/05/04 02:22:35;;;;;;;9.13;5.00;;;5.60;99.90;;;;;;4957333;28;20054;-65
2023/05/04 02:25:03;;;;;;;13.20;5.63;;;5.60;99.90;;;;;;4956463;28;20095;-64
2023/05/04 02:27:30;;;;;;;10.07;6.15;;;5.60;99.90;;;;;;4957017;28;20056;-65
2023/05/04 02:29:58;;;;;;;8.65;5.18;;;5.60;99.90;;;;;;4957224;28;20046;-63
2023/05/04 02:32:26;;;;;;;11.73;5.82;;;5.60;99.90;;;;;;4990183;28;20053;-64
2023/05/04 02:34:53;;;;;;;11.10;6.20;;;5.60;99.90;;;;;;4992245;28;20069;-64
2023/05/04 02:37:20;;;;;;;12.55;5.20;;;5.60;99.90;;;;;;4975419;28;20054;-64
2023/05/04 02:39:47;;;;;;;10.98;6.13;;;5.60;99.90;;;;;;4991808;28;20506;-64
2023/05/04 02:42:14;;;;;;;13.70;5.53;;;5.60;99.90;;;;;;4992505;28;20046;-64
2023/05/04 02:44:41;;;;;;;12.40;5.90;;;5.60;99.90;;;;;;4974740;28;20498;-64
2023/05/04 02:47:09;;;;;;;14.60;5.70;;;5.50;99.90;;;;;;4991922;28;20130;-64
2023/05/04 02:49:36;;;;;;;13.90;6.45;;;5.60;99.90;;;;;;4974776;28;20058;-64
2023/05/04 02:52:03;;;;;;;10.82;5.82;;;5.60;99.90;;;;;;4974635;28;20568;-64
2023/05/04 02:54:30;;;;;;;11.38;5.65;;;5.60;99.90;;;;;;4974805;28;20503;-63
2023/05/04 02:56:57;;;;;;;8.68;5.40;;;5.60;99.90;;;;;;4975118;28;20387;-64
2023/05/04 02:59:24;;;;;;;8.07;5.35;;;5.60;99.90;;;;;;4972723;28;20160;-64
2023/05/04 03:01:51;;;;;;;8.15;5.63;;;5.70;99.90;;;;;;4974806;28;20384;-64
2023/05/04 03:04:19;;;;;;;16.02;6.57;;;5.60;99.90;;;;;;4992150;28;20056;-64
2023/05/04 03:06:46;;;;;;;11.82;6.10;;;5.60;99.90;;;;;;4977952;28;20581;-64
2023/05/04 03:09:13;;;;;;;11.05;5.30;;;5.70;99.90;;;;;;4974140;28;20063;-64
2023/05/04 03:11:40;;;;;;;10.30;6.38;;;5.70;99.90;;;;;;4956533;28;20057;-64
2023/05/04 03:14:07;;;;;;;11.18;6.18;;;5.60;99.90;;;;;;4973467;28;20047;-64
2023/05/04 03:16:35;;;;;;;13.52;6.28;;;5.70;99.90;;;;;;4973688;28;20054;-64
2023/05/04 03:19:02;;;;;;;13.20;6.45;;;5.70;99.90;;;;;;4974070;28;20057;-64
2023/05/04 03:21:30;;;;;;;10.80;6.15;;;5.70;99.90;;;;;;4974402;28;20046;-64
2023/05/04 03:23:58;;;;;;;13.57;6.75;;;5.70;99.90;;;;;;4974621;28;20062;-63
2023/05/04 03:26:24;;;;;;;11.98;6.45;;;5.80;99.90;;;;;;4991889;28;20046;-63
2023/05/04 03:28:51;;;;;;;11.15;5.82;;;5.80;99.90;;;;;;4991296;28;20057;-64
2023/05/04 03:31:18;;;;;;;9.63;6.32;;;5.80;99.90;;;;;;4974575;28;20486;-63
2023/05/04 03:33:45;;;;;;;10.15;5.95;;;5.80;99.90;;;;;;4992104;28;20050;-63
2023/05/04 03:36:12;;;;;;;13.63;6.50;;;5.80;99.90;;;;;;4974139;28;20054;-63
2023/05/04 03:38:41;;;;;;;11.18;6.05;;;5.90;99.90;;;;;;4991768;28;20521;-65
2023/05/04 03:41:07;;;;;;;9.82;6.10;;;5.90;99.90;;;;;;4991922;28;20055;-64
2023/05/04 03:43:34;;;;;;;12.18;6.32;;;5.90;99.90;;;;;;4991225;28;20043;-63
2023/05/04 03:46:01;;;;;;;11.05;6.65;;;5.90;99.90;;;;;;4991577;28;20487;-64
2023/05/04 03:48:28;;;;;;;7.97;5.53;;;5.90;99.90;;;;;;4974063;28;20450;-64
2023/05/04 03:50:55;;;;;;;11.23;6.55;;;5.90;99.90;;;;;;4974281;28;20046;-64
2023/05/04 03:53:22;;;;;;;13.70;5.95;;;5.90;99.90;;;;;;4991762;28;20054;-65
2023/05/04 03:55:50;;;;;;;11.20;6.38;;;6.00;99.90;;;;;;4990885;28;20050;-64
2023/05/04 03:58:17;;;;;;;14.00;6.25;;;6.00;99.90;;;;;;4991510;28;20062;-64
2023/05/04 04:00:44;;;;;;;10.77;5.97;;;6.00;99.90;;;;;;4974195;28;20085;-64
2023/05/04 04:03:11;;;;;;;10.05;6.18;;;6.00;99.90;;;;;;4973939;28;20054;-63
2023/05/04 04:05:38;;;;;;;13.50;6.30;;;6.00;99.90;;;;;;4991649;28;20046;-64
2023/05/04 04:08:05;;;;;;;8.07;5.85;;;6.00;99.90;;;;;;4991617;28;20102;-65
2023/05/04 04:10:32;;;;;;;11.45;5.95;;;6.10;99.90;;;;;;4991055;28;20043;-64
2023/05/04 04:13:00;;;;;;;12.65;6.90;;;6.10;99.90;;;;;;4991745;28;20380;-64
2023/05/04 04:15:27;;;;;;;14.05;6.68;;;6.10;99.90;;;;;;4962478;28;20447;-66
2023/05/04 04:17:54;;;;;;;12.55;6.57;;;6.10;99.90;;;;;;4976827;28;20057;-64
2023/05/04 04:20:21;;;;;;;13.38;6.35;;;6.20;99.90;;;;;;4978003;28;20046;-65
2023/05/04 04:22:48;;;;;;;8.75;5.30;;;6.20;99.90;;;;;;4994819;28;20046;-65
2023/05/04 04:25:15;;;;;;;22.67;6.40;;;6.20;99.90;;;;;;4994424;28;20411;-64
2023/05/04 04:27:42;;;;;;;10.15;6.35;;;6.20;99.90;;;;;;4976791;28;20051;-63
2023/05/04 04:30:12;;;;;;;9.15;6.03;;;6.20;99.90;;;;;;4994034;28;20062;-64
2023/05/04 04:32:39;;;;;;;13.23;5.93;;;6.20;99.90;;;;;;4976015;28;20050;-63
2023/05/04 04:35:07;;;;;;;15.70;6.43;;;6.20;99.90;;;;;;4959248;28;20113;-64
2023/05/04 04:37:34;;;;;;;14.20;6.85;;;6.20;99.90;;;;;;4975784;28;20046;-64
2023/05/04 04:40:01;;;;;;;15.13;6.30;;;6.20;99.90;;;;;;4994211;28;20481;-63
2023/05/04 04:42:28;;;;;;;12.73;5.95;;;6.20;99.90;;;;;;4994540;28;20487;-64
2023/05/04 04:44:54;;;;;;;11.02;6.30;;;6.20;99.90;;;;;;4976648;28;20042;-64
2023/05/04 04:47:23;;;;;;;13.50;6.65;;;6.20;99.90;;;;;;4994632;28;20050;-64
2023/05/04 04:49:50;;;;;;;12.73;6.32;;;6.20;99.90;;;;;;4976411;28;20113;-63
2023/05/04 04:52:17;;;;;;;10.48;6.22;;;6.30;99.90;;;;;;4975606;28;20066;-64
2023/05/04 04:54:44;;;;;;;13.82;6.43;;;6.30;99.90;;;;;;4976132;28;20089;-63
2023/05/04 04:57:11;;;;;;;16.55;6.68;;;6.30;99.90;;;;;;4958870;28;20094;-63
2023/05/04 04:59:37;;;;;;;12.02;6.22;;;6.40;99.90;;;;;;4975604;28;20058;-65
2023/05/04 05:02:04;;;;;;;9.95;5.97;;;6.40;99.90;;;;;;4975924;28;20115;-63
2023/05/04 05:04:33;;;;;;;11.75;6.65;;;6.50;99.90;;;;;;4992500;28;20501;-64
2023/05/04 05:06:59;;;;;;;13.68;6.38;;;6.50;99.90;;;;;;4976342;28;20474;-65
2023/05/04 05:09:26;;;;;;;12.55;6.88;;;6.50;99.90;;;;;;4994539;28;20134;-66
2023/05/04 05:11:53;;;;;;;11.55;6.63;;;6.60;99.90;;;;;;4958587;28;20050;-64
2023/05/04 05:14:20;;;;;;;12.80;6.72;;;6.70;99.90;;;;;;4974988;28;20055;-64
2023/05/04 05:16:47;;;;;;;11.38;6.28;;;6.70;99.90;;;;;;4975791;28;20486;-63
2023/05/04 05:19:14;;;;;;;16.50;6.90;;;6.80;99.90;;;;;;4975879;28;20046;-64
2023/05/04 05:21:42;;;;;;;14.77;5.55;;;6.90;99.90;;;;;;4991670;28;20049;-64
2023/05/04 05:24:09;;;;;;;11.07;6.35;;;6.90;99.90;;;;;;4976210;28;20145;-63
2023/05/04 05:26:36;;;;;;;10.35;6.00;;;7.00;99.90;;;;;;4994191;28;20074;-64
2023/05/04 05:29:03;;;;;;;13.18;6.18;;;7.00;99.90;;;;;;4993208;28;20418;-64
2023/05/04 05:31:30;;;;;;;13.07;5.60;;;7.00;99.90;;;;;;4993817;28;20088;-64
2023/05/04 05:33:57;;;;;;;11.60;6.40;;;7.10;99.90;;;;;;4993051;28;20105;-64
2023/05/04 05:36:24;;;;;;;10.80;6.22;;;7.10;99.90;;;;;;4976230;28;20054;-64
2023/05/04 05:38:52;;;;;;;11.15;5.80;;;7.20;99.90;;;;;;4993716;28;20050;-63
2023/05/04 05:41:19;;;;;;;14.05;6.15;;;7.30;99.90;;;;;;4975919;28;20054;-64
2023/05/04 05:43:46;;;;;;;13.35;6.25;;;7.30;99.90;;;;;;4977198;28;20050;-64
2023/05/04 05:46:14;;;;;;;11.18;5.60;;;7.50;99.90;;;;;;4975108;28;20093;-63
2023/05/04 05:48:41;;;;;;;13.50;6.75;;;7.60;99.90;;;;;;4973995;28;20054;-64
2023/05/04 05:51:08;;;;;;;11.18;5.65;;;7.70;99.90;;;;;;4976039;28;20474;-63
2023/05/04 05:53:35;;;;;;;11.73;5.88;;;7.80;99.90;;;;;;4993528;28;20061;-63
2023/05/04 05:56:03;;;;;;;11.45;6.15;;;7.90;99.90;;;;;;4975244;28;20096;-63
2023/05/04 05:58:30;;;;;;;12.45;6.35;;;8.10;99.90;;;;;;4976184;28;20510;-62
2023/05/04 06:00:57;;;;;;;10.68;5.85;;;8.20;99.90;;;;;;4974862;28;20046;-64
2023/05/04 06:03:24;;;;;;;13.52;6.07;;;8.30;99.90;;;;;;4957230;28;20050;-63
2023/05/04 06:05:51;;;;;;;11.25;6.15;;;8.40;99.90;;;;;;4990939;28;20495;-63
2023/05/04 06:08:18;;;;;;;13.30;6.22;;;8.40;99.90;;;;;;4975767;28;20458;-63
2023/05/04 06:10:45;;;;;;;10.60;6.05;;;8.50;99.90;;;;;;4990471;28;20133;-63
2023/05/04 06:13:13;;;;;;;10.52;6.07;;;8.60;99.90;;;;;;4992904;28;20043;-63
2023/05/04 06:15:40;;;;;;;10.95;6.50;;;8.90;99.90;;;;;;4992900;28;20446;-63
2023/05/04 06:18:07;;;;;;;10.73;5.32;;;9.10;99.90;;;;;;4992356;28;20054;-64
2023/05/04 06:20:33;;;;;;;13.32;5.65;;;9.20;99.90;;;;;;4975372;28;20054;-64
2023/05/04 06:23:00;;;;;;;10.10;5.85;;;9.50;99.90;;;;;;4991949;28;20121;-65
2023/05/04 06:25:27;;;;;;;15.82;6.25;;;9.60;99.90;;;;;;4975518;28;20053;-64
2023/05/04 06:27:54;;;;;;;12.07;5.47;;;9.90;99.90;;;;;;4975460;28;20411;-64
2023/05/04 06:30:23;;;;;;;10.88;5.78;;;10.20;99.90;;;;;;4992199;28;20368;-64
2023/05/04 06:32:50;;;;;;;11.98;6.35;;;10.40;99.90;;;;;;4992900;28;20046;-64
2023/05/04 06:35:17;;;;;;;11.32;5.97;;;10.60;99.90;;;;;;4992596;28;20054;-64
2023/05/04 06:37:44;;;;;;;13.90;5.85;;;10.80;99.90;;;;;;4972729;28;20134;-64
2023/05/04 06:40:12;;;;;;;12.65;6.00;;;10.80;99.90;;;;;;4979208;28;20125;-65
2023/05/04 06:42:39;;;;;;;12.63;6.40;;;10.90;99.90;;;;;;4980033;28;20553;-64
2023/05/04 06:45:08;;;;;;;12.90;5.95;;;11.20;99.90;;;;;;4959892;28;20051;-64
2023/05/04 06:47:36;;;;;;;14.10;5.20;;;11.60;99.90;;;;;;4961107;28;20158;-65
2023/05/04 06:50:08;;;;;;;14.02;6.55;;;11.60;99.90;;;;;;4983408;28;20062;-64
2023/05/04 06:52:35;;;;;;;11.45;6.18;;;11.90;99.90;;;;;;4959223;28;20069;-64
2023/05/04 06:55:02;;;;;;;14.20;6.32;;;12.10;99.90;;;;;;4979605;28;20047;-64
2023/05/04 06:57:29;;;;;;;10.05;5.35;;;12.60;99.90;;;;;;4977777;28;20054;-65
2023/05/04 06:59:56;;;;;;;18.65;5.72;;;12.70;99.90;;;;;;4976543;28;20051;-64
2023/05/04 07:02:23;;;;;;;9.43;5.50;;;13.10;99.90;;;;;;4981474;28;20050;-65
2023/05/04 07:04:52;;;;;;;10.93;5.70;;;13.10;99.90;;;;;;4961321;28;20470;-63
2023/05/04 07:07:19;;;;;;;11.07;5.43;;;13.30;99.90;;;;;;4959481;28;20085;-64
2023/05/04 07:09:47;;;;;;;9.35;5.22;;;13.70;99.90;;;;;;4977428;28;20060;-66
2023/05/04 07:12:13;;;;;;;12.00;5.60;;;14.10;99.90;;;;;;4977726;28;20077;-64
2023/05/04 07:14:40;;;;;;;9.43;4.82;;;14.20;99.90;;;;;;4974100;28;20042;-65
2023/05/04 07:17:09;;;;;;;9.07;5.13;;;14.50;99.90;;;;;;4980541;28;20106;-65
2023/05/04 07:19:36;;;;;;;9.70;5.47;;;14.70;99.90;;;;;;4974691;28;20057;-65
2023/05/04 07:22:04;;;;;;;9.65;5.28;;;14.60;99.90;;;;;;4979586;28;20050;-65
2023/05/04 07:24:31;;;;;;;11.20;5.03;;;14.90;99.90;;;;;;4956778;28;20101;-63
2023/05/04 07:26:58;;;;;;;8.43;4.80;;;15.10;99.90;;;;;;4969356;28;20054;-65
2023/05/04 07:29:25;;;;;;;10.65;4.70;;;15.40;99.90;;;;;;4958859;28;20058;-66
2023/05/04 07:31:52;;;;;;;10.02;4.90;;;15.40;99.90;;;;;;4973560;28;20422;-65
2023/05/04 07:34:19;;;;;;;6.35;4.40;;;15.50;99.90;;;;;;4975651;28;20053;-65
2023/05/04 07:36:45;;;;;;;8.93;5.00;;;15.30;99.90;;;;;;4979735;28;20109;-65
2023/05/04 07:39:15;;;;;;;12.10;5.03;;;14.90;99.90;;;;;;4969375;28;20466;-65
2023/05/04 07:41:42;;;;;;;14.57;5.10;;;14.90;99.90;;;;;;4960710;28;20081;-66
2023/05/04 07:44:10;;;;;;;16.10;6.35;;;14.80;99.90;;;;;;4975479;28;20050;-66
2023/05/04 07:46:37;;;;;;;9.05;4.90;;;15.00;99.90;;;;;;4978394;28;20046;-65
2023/05/04 07:49:04;;;;;;;9.82;4.65;;;15.00;99.90;;;;;;4978651;28;20748;-66
2023/05/04 07:51:31;;;;;;;13.23;4.80;;;15.00;99.90;;;;;;4961752;28;20570;-64
2023/05/04 07:53:58;;;;;;;10.32;4.47;;;15.10;99.90;;;;;;4966117;28;20058;-66
2023/05/04 07:56:26;;;;;;;8.73;4.95;;;15.40;99.90;;;;;;4961246;28;20054;-66
2023/05/04 07:58:53;;;;;;;9.23;4.68;;;15.60;99.90;;;;;;4965526;28;20062;-65
2023/05/04 08:01:20;;;;;;;10.02;4.45;;;15.40;99.90;;;;;;4987498;28;20050;-66
2023/05/04 08:03:47;;;;;;;10.75;4.53;;;15.60;99.90;;;;;;4980677;28;20043;-66
2023/05/04 08:06:14;;;;;;;10.02;5.18;;;15.90;99.90;;;;;;4978814;28;20070;-66
2023/05/04 08:08:41;;;;;;;9.95;4.97;;;16.00;99.90;;;;;;4971150;28;20101;-64
2023/05/04 08:11:12;;;;;;;14.77;5.68;;;16.40;99.80;;;;;;4981268;28;20046;-66
2023/05/04 08:13:40;;;;;;;7.63;4.70;;;16.70;99.90;;;;;;4985568;28;20130;-66
2023/05/04 08:16:08;;;;;;;11.18;4.18;;;16.80;99.50;;;;;;4979312;28;20039;-65
2023/05/04 08:18:35;;;;;;;8.02;4.65;;;17.40;99.10;;;;;;4965044;28;20053;-65
2023/05/04 08:21:03;;;;;;;10.13;4.63;;;17.70;99.00;;;;;;4975857;28;20136;-66
2023/05/04 08:23:30;;;;;;;10.55;4.47;;;18.00;98.90;;;;;;4979895;28;20050;-66
2023/05/04 08:25:57;;;;;;;8.05;4.43;;;18.20;97.40;;;;;;4973437;28;20051;-66
2023/05/04 08:28:24;;;;;;;11.18;4.93;;;18.20;97.50;;;;;;4980806;28;20047;-65
2023/05/04 08:30:52;;;;;;;8.43;4.95;;;18.20;97.10;;;;;;4980967;28;20062;-66
2023/05/04 08:33:19;;;;;;;5.97;4.50;;;18.10;96.40;;;;;;4982934;28;20510;-66
2023/05/04 08:35:46;;;;;;;9.13;4.35;;;18.00;97.20;;;;;;4970357;28;20137;-65
2023/05/04 08:38:13;;;;;;;8.65;4.90;;;17.80;96.30;;;;;;4970778;28;20053;-65
2023/05/04 08:40:42;;;;;;;9.43;4.47;;;17.70;97.10;;;;;;4971545;28;20058;-65
2023/05/04 08:43:09;;;;;;;9.90;4.13;;;17.80;97.20;;;;;;4963116;28;20509;-65
2023/05/04 08:45:38;;;;;;;9.52;4.30;;;17.50;96.50;;;;;;4963954;28;20705;-65
2023/05/04 08:48:07;;;;;;;10.10;5.03;;;17.30;96.60;;;;;;4980900;28;20130;-66
2023/05/04 08:50:34;;;;;;;7.90;4.53;;;17.40;97.10;;;;;;4975539;28;20065;-66
2023/05/04 08:53:04;;;;;;;10.00;4.97;;;17.70;97.80;;;;;;4977815;28;20046;-65
2023/05/04 08:55:33;;;;;;;8.60;4.57;;;18.20;96.70;;;;;;4962948;28;20046;-66
2023/05/04 08:58:03;;;;;;;8.18;4.90;;;18.70;95.60;;;;;;4961770;28;20069;-67
2023/05/04 09:00:31;;;;;;;6.68;4.45;;;19.00;95.40;;;;;;4980136;28;20062;-67
2023/05/04 09:03:00;;;;;;;9.88;4.38;;;19.50;95.10;;;;;;4981263;28;20846;-67
2023/05/04 09:05:29;;;;;;;6.90;4.03;;;19.90;95.30;;;;;;4975503;28;20057;-66
2023/05/04 09:07:56;;;;;;;7.82;4.05;;;20.30;94.60;;;;;;4963705;28;20134;-65
2023/05/04 09:10:24;;;;;;;9.15;4.70;;;20.30;94.30;;;;;;4977128;28;20051;-67
2023/05/04 09:12:54;;;;;;;7.18;3.80;;;20.30;93.40;;;;;;4982078;28;20058;-67
2023/05/04 09:15:22;;;;;;;10.98;4.28;;;20.50;93.10;;;;;;4962026;28;20078;-66
2023/05/04 09:17:57;;;;;;;7.55;3.78;;;20.20;92.90;;;;;;4982025;28;20054;-65
2023/05/04 09:20:25;;;;;;;9.90;4.43;;;21.00;92.60;;;;;;4965563;28;20085;-65
2023/05/04 09:23:06;;;;;;;9.50;4.38;;;21.00;92.30;;;;;;4967017;28;20070;-67
2023/05/04 09:25:33;;;;;;;19.95;4.53;;;21.00;91.50;;;;;;4961303;28;20051;-65
2023/05/04 09:28:00;;;;;;;12.02;4.68;;;20.90;92.00;;;;;;4981697;28;20121;-65
2023/05/04 09:30:27;;;;;;;9.20;4.40;;;21.00;92.50;;;;;;4978524;28;20186;-66
2023/05/04 09:32:54;;;;;;;5.15;3.50;;;21.10;92.40;;;;;;4984416;28;20098;-65
2023/05/04 09:35:28;;;;;;;6.57;3.45;;;21.30;92.10;;;;;;4961618;28;20105;-65
2023/05/04 09:37:56;;;;;;;7.85;3.95;;;21.40;91.60;;;;;;4980257;28;20902;-66
2023/05/04 09:40:32;;;;;;;13.20;4.20;;;21.50;91.40;;;;;;4972062;28;20834;-65
2023/05/04 09:42:59;;;;;;;9.40;3.45;;;21.80;90.70;;;;;;4965193;28;20105;-65
2023/05/04 09:45:28;;;;;;;7.30;3.72;;;21.80;89.50;;;;;;4964270;28;20051;-66
2023/05/04 09:47:56;;;;;;;9.13;4.00;;;22.20;90.40;;;;;;4974462;28;20047;-66
2023/05/04 09:50:24;;;;;;;8.80;3.70;;;22.60;90.30;;;;;;4965752;28;20252;-66
2023/05/04 09:52:51;;;;;;;9.15;4.00;;;22.50;88.00;;;;;;4964925;28;20414;-66
2023/05/04 09:55:19;;;;;;;6.75;3.67;;;22.40;86.20;;;;;;4967676;28;20047;-66
2023/05/04 09:57:50;;;;;;;6.97;3.90;;;22.70;84.50;;;;;;4980909;28;20047;-67
2023/05/04 10:00:18;;;;;;;7.22;3.35;;;22.70;85.20;;;;;;4984495;28;20042;-65
2023/05/04 10:02:46;;;;;;;6.15;3.50;;;22.90;86.20;;;;;;4962317;28;20423;-68
2023/05/04 10:05:16;;;;;;;5.78;3.35;;;22.80;84.60;;;;;;4980669;28;20503;-67
2023/05/04 10:07:43;;;;;;;8.05;2.80;;;22.90;84.30;;;;;;4979685;28;20047;-66
2023/05/04 10:10:12;;;;;;;8.55;3.20;;;23.30;88.00;;;;;;4963716;28;20555;-67
2023/05/04 10:12:39;;;;;;;10.38;3.63;;;23.90;86.40;;;;;;4962180;28;20129;-66
2023/05/04 10:15:10;;;;;;;7.95;3.30;;;24.00;84.90;;;;;;4978051;28;20058;-67
2023/05/04 10:17:58;;;;;;;7.45;2.83;;;24.30;81.70;;;;;;4960710;28;20073;-67
2023/05/04 10:20:43;;;;;;;5.90;3.58;;;24.70;82.80;;;;;;4958310;28;20050;-66
2023/05/04 10:23:32;;;;;;;6.90;3.20;;;24.50;79.40;;;;;;4975836;28;20187;-67
2023/05/04 10:26:24;;;;;;;5.78;3.67;;;24.50;81.00;;;;;;4980589;28;20479;-67
2023/05/04 10:29:03;;;;;;;7.28;3.03;;;24.30;80.50;;;;;;4959013;28;20105;-67
2023/05/04 10:31:39;;;;;;;4.80;2.63;;;23.80;79.50;;;;;;4980114;28;20089;-67
2023/05/04 10:34:07;;;;;;;7.60;3.35;;;23.90;80.50;;;;;;4978731;28;20043;-66
2023/05/04 10:36:38;;;;;;;8.68;3.20;;;23.50;80.40;;;;;;4982645;28;20046;-66
2023/05/04 10:39:06;;;;;;;8.45;3.03;;;23.50;79.10;;;;;;4975250;28;20042;-66
2023/05/04 10:41:32;;;;;;;5.18;3.40;;;23.50;81.60;;;;;;4966851;28;20054;-67
2023/05/04 10:44:03;;;;;;;8.27;3.22;;;23.50;80.50;;;;;;4980261;28;20495;-66
2023/05/04 10:46:30;;;;;;;8.05;3.17;;;23.70;80.10;;;;;;4977976;28;20049;-67
2023/05/04 10:48:58;;;;;;;5.95;3.55;;;23.70;81.80;;;;;;4979161;28;20430;-66
2023/05/04 10:51:28;;;;;;;6.07;3.22;;;24.00;81.40;;;;;;4976697;28;20494;-66
2023/05/04 10:53:56;;;;;;;5.50;3.13;;;23.90;81.10;;;;;;4961799;28;20565;-66
2023/05/04 10:56:24;;;;;;;9.18;4.13;;;24.00;80.00;;;;;;4981345;28;20096;-67
2023/05/04 10:58:51;;;;;;;5.28;3.08;;;24.30;80.00;;;;;;4978716;28;20447;-67
2023/05/04 11:01:19;;;;;;;8.95;3.35;;;24.40;80.10;;;;;;4980307;28;20057;-67
2023/05/04 11:03:46;;;;;;;5.70;3.10;;;24.60;78.70;;;;;;4970600;28;20130;-67
2023/05/04 11:06:19;;;;;;;7.10;3.40;;;24.30;79.30;;;;;;4982347;28;20109;-66
2023/05/04 11:08:48;;;;;;;7.32;3.45;;;24.40;76.70;;;;;;4978880;28;20057;-68
2023/05/04 11:11:15;;;;;;;7.88;3.78;;;24.80;78.40;;;;;;4960316;28;20134;-67
2023/05/04 11:13:45;;;;;;;6.38;3.50;;;25.20;78.70;;;;;;4961674;28;20042;-67
2023/05/04 11:16:12;;;;;;;7.43;3.40;;;25.30;77.10;;;;;;4978209;28;20046;-67
2023/05/04 11:18:40;;;;;;;6.55;3.45;;;25.10;77.10;;;;;;4966457;28;20046;-67
2023/05/04 11:21:07;;;;;;;10.95;2.95;;;24.60;77.10;;;;;;4959454;28;20074;-67
2023/05/04 11:23:36;;;;;;;9.48;3.97;;;24.60;76.10;;;;;;4963945;28;20129;-66
2023/05/04 11:26:08;;;;;;;6.20;3.60;;;24.70;76.20;;;;;;4978867;28;20047;-67
2023/05/04 11:28:36;;;;;;;7.88;3.10;;;24.70;75.50;;;;;;4962211;28;20054;-67
2023/05/04 11:31:13;;;;;;;9.07;3.40;;;24.40;77.40;;;;;;4979255;28;20049;-66
2023/05/04 11:33:45;;;;;;;8.55;3.70;;;24.50;76.40;;;;;;4970328;28;20046;-66
2023/05/04 11:36:13;;;;;;;5.43;3.35;;;24.30;77.10;;;;;;4979895;28;20145;-67
2023/05/04 11:38:41;;;;;;;6.60;3.38;;;24.30;76.80;;;;;;4986949;28;20042;-66
2023/05/04 11:41:08;;;;;;;7.57;3.28;;;24.70;76.50;;;;;;4981314;28;20061;-66
2023/05/04 11:43:37;;;;;;;8.85;3.17;;;25.00;75.30;;;;;;4981080;28;20046;-66
2023/05/04 11:46:06;;;;;;;7.53;3.17;;;24.90;75.20;;;;;;4963686;28;20053;-65
2023/05/04 11:48:35;;;;;;;6.93;3.45;;;24.80;74.80;;;;;;4958418;28;20055;-66
2023/05/04 11:51:02;;;;;;;7.35;3.15;;;24.70;74.10;;;;;;4974906;28;21258;-66
2023/05/04 11:53:37;;;;;;;6.68;3.83;;;25.00;74.50;;;;;;4974941;28;20042;-66
2023/05/04 11:56:07;;;;;;;8.90;3.38;;;25.50;73.90;;;;;;4976953;28;20050;-67
2023/05/04 11:58:34;;;;;;;6.82;3.40;;;25.00;73.80;;;;;;4978104;28;20121;-67
2023/05/04 12:01:02;;;;;;;6.93;3.65;;;24.60;73.70;;;;;;4995091;28;20042;-66
2023/05/04 12:03:31;;;;;;;7.07;3.45;;;25.10;73.60;;;;;;4959668;28;20089;-66
2023/05/04 12:05:59;;;;;;;7.93;3.47;;;24.90;73.20;;;;;;4959756;28;20055;-66
2023/05/04 12:08:29;;;;;;;7.75;4.22;;;25.00;72.20;;;;;;4993782;28;20289;-67
2023/05/04 12:11:13;;;;;;;6.50;3.70;;;24.90;72.80;;;;;;4995545;28;20057;-66
2023/05/04 12:13:41;;;;;;;7.55;3.60;;;24.80;73.20;;;;;;4977715;28;20074;-65
2023/05/04 12:16:09;;;;;;;5.70;3.50;;;25.00;73.50;;;;;;4977038;28;20093;-66
2023/05/04 12:18:36;;;;;;;6.32;3.88;;;25.10;74.10;;;;;;4977980;28;20073;-66
2023/05/04 12:21:11;;;;;;;7.50;3.92;;;24.70;72.60;;;;;;4995237;28;20053;-67
2023/05/04 12:23:38;;;;;;;7.97;3.92;;;24.70;72.90;;;;;;4976892;28;20073;-67
2023/05/04 12:26:05;;;;;;;9.32;4.07;;;25.10;72.50;;;;;;4993254;28;20097;-67
2023/05/04 12:28:34;;;;;;;10.38;3.63;;;24.90;71.50;;;;;;4994677;28;20495;-66
2023/05/04 12:31:01;;;;;;;10.30;4.47;;;25.30;71.50;;;;;;4994690;28;20490;-66
2023/05/04 12:33:28;;;;;;;6.78;4.22;;;25.50;71.90;;;;;;4994747;28;20072;-66
2023/05/04 12:35:55;;;;;;;8.38;4.18;;;25.00;71.90;;;;;;4976547;28;20050;-67
2023/05/04 12:38:22;;;;;;;6.93;3.97;;;25.00;73.00;;;;;;4992459;28;20046;-66
2023/05/04 12:40:49;;;;;;;9.43;3.85;;;25.20;74.00;;;;;;4986694;28;20046;-66
2023/05/04 12:43:17;;;;;;;8.13;4.22;;;25.50;73.10;;;;;;4993622;28;20043;-67
2023/05/04 12:45:45;;;;;;;8.60;3.63;;;26.10;72.60;;;;;;4977137;28;20129;-66
2023/05/04 12:48:12;;;;;;;9.50;3.53;;;26.50;72.70;;;;;;4994841;28;20042;-65
2023/05/04 12:50:39;;;;;;;6.65;3.85;;;26.90;71.80;;;;;;4976954;28;20053;-67